TAF

Looking Back 6 Hours

Worst Weather Category
LocationTimeVisiblityCeilingWeatherWind SpeedWind Gust
KPBF280631Z0.25100Thunderstorm SSW 11NA NA
KPBF280521Z0.25100Thunderstorm SSW 11NA NA
KPBF280100Z0.5200Fog SSW 9NA NA

  • TAFPBF TAF AMD KPBF 280631Z 2807/0106 09005KT 2SM BR OVC004 WS020/19045KT
          TEMPO 2807/2810 1/4SM FG OVC001
          FM281000 19008KT 1/4SM -SHRA FG OVC002 WS020/19045KT
          FM281500 21011KT 5SM BR VCSH OVC015 WS020/22035KT
          FM282100 22009KT 5SM TSRA BR OVC025CB
          FM010300 35006KT 5SM -SHRA BR OVC015 =

  • TAFPBF TAF KPBF 280521Z 2806/0106 09005KT 1 1/2SM BR OVC004 WS020/19045KT
          TEMPO 2806/2810 1/4SM FG OVC001
          FM281000 19008KT 1/4SM -SHRA FG OVC002 WS020/19045KT
          FM281500 21011KT 5SM BR VCSH OVC015 WS020/22035KT
          FM282100 22009KT 5SM TSRA BR OVC025CB
          FM010300 35006KT 5SM -SHRA BR OVC015 =

  • TAFPBF TAF AMD KPBF 280100Z 2801/2824 09005KT 2SM BR OVC005
          TEMPO 2801/2805 1/2SM FG OVC002
          FM280500 18005KT 5SM BR OVC009 WS020/19045KT
          FM281200 20009KT 6SM BR VCSH OVC015 WS020/22035KT =